Impacts METAR Board
IDs:

KMEM - Memphis Intl, TN, US

Updated at: 2200 UTC 25 May 2018
Potential Impact None Slight Moderate High
Time 25/10Z 25/11Z 25/12Z 25/13Z 25/14Z 25/15Z 25/16Z 25/17Z 25/18Z 25/19Z 25/20Z 25/21Z 25/22Z
Temp72 71 71 74 78 79 82 85 85 84 82 85 79
Dewpt70 70 70 71 72 72 72 71 69 70 72 70 72
Altim29.99 29.99 30.00 30.00 30.00 30.00 30.01 30.00 29.96 29.91 29.90 29.90 29.89
VIS10 10 10 10 10 10 10 10 10 10 10 10 10
CIG150 150 200 -- 250 120 250 120 120 55 100 110 120
CoverBKNBKNBKNSCTBKNBKNBKNBKNBKNOVCBKNBKNOVC
FltCatVFRVFRVFRVFRVFRVFRVFRVFRVFRVFRVFRVFRVFR
WX---------------------RATSTS
WDir1100190018019000180160220280300
WSpd3 0 3 0 3 3 0 3 4 6 5 7 9
WGst-- -- -- -- -- -- -- -- -- -- -- -- --
Raw hourly METARs
KMEM 250954Z 11003KT 10SM BKN150 22/21 A2999 RMK AO2 SLP151 T02220211 $
KMEM 251054Z 00000KT 10SM BKN150 22/21 A2999 RMK AO2 SLP153 T02170211 $
KMEM 251154Z 19003KT 10SM SCT150 BKN200 22/21 A3000 RMK AO2 SLP155 60000 70041 T02170211 10228 20217 55000 $
KMEM 251254Z 00000KT 10SM SCT150 SCT250 23/22 A3000 RMK AO2 SLP154 T02330217 $
KMEM 251354Z COR 18003KT 10SM FEW040 SCT120 BKN250 26/22 A3000 RMK AO2 SLP155 T02560222 $
KMEM 251454Z 19003KT 10SM FEW040 BKN120 BKN250 26/22 A3000 RMK AO2 SLP156 T02610222 53002 $
KMEM 251554Z 00000KT 10SM FEW040 SCT120 BKN250 28/22 A3001 RMK AO2 SLP156 T02780222 $
KMEM 251654Z VRB03KT 10SM FEW036 BKN120 BKN250 29/22 A3000 RMK AO2 SLP155 T02940217 $
KMEM 251754Z 18004KT 10SM SCT038TCU BKN120 BKN250 29/21 A2996 RMK AO2 LTG DSNT W AND NW SLP140 TCU W T02940206 10306 20217 58015 $
KMEM 251854Z 16006KT 10SM BKN055CB BKN070 BKN120 OVC250 29/21 A2991 RMK AO2 LTG DSNT SW AND W SLP125 CB SW AND DSNT W-NW T02890211 $
KMEM 251954Z 22005KT 10SM -RA SCT040TCU BKN100 BKN250 28/22 A2990 RMK AO2 LTG DSNT W RAB48 SLP119 TCU OHD-N P0001 T02780222 $
KMEM 252054Z COR 28007KT 10SM TS SCT040CB BKN110 BKN250 29/21 A2990 RMK AO2 LTG DSNT N AND S RAE02 TSB54 SLP120 CB N AND E-SE AND DSNT S MOV NE VCSH N AND E-SE P0000 60001 T02940211 55020 $
KMEM 252154Z 30009KT 10SM TS FEW040CB BKN120 OVC250 26/22 A2989 RMK AO2 LTG DSNT NE-S TSE09B52 SLP117 OCNL LTGICCCCG E TS E MOV N T02610222 $



Page loaded:  22:28 UTC  |   03:28 PM Pacific  |   04:28 PM Mountain  |   05:28 PM Central  |   06:28 PM Eastern

 

ADVISORIES

FORECASTS

FORECASTS

OBSERVATIONS

USER TOOLS

ABOUT US